Lahore Weather



Lahore's Current Weather

Temprature 40.37o haze

haze

Rain: 0 %

Min Temprature40o
Max Temprature41o
Humidity34
Wind Speed5.1 m/h
Sun Rise04:59:25
Sun Set19:11:13
Current Time: 26-Jun-2019 15:21:26
Lat/Lon: 31.52, 74.33




Lahore's Geo Location



Lahore's Weather Forecast

Time Overall Temp Min Temp Max Temp Humidity Wind Speed Rain
26-Jun-2019 (Wed)
17:00:00 clear sky 40.950 40.950 43.550 11 3 m/h 0 %
20:00:00 scattered clouds 38.400 38.400 40.347 17 1.86 m/h 0 %
23:00:00 few clouds 36.540 36.540 37.840 21 0.8 m/h 0 %
27-Jun-2019 (Thu)
02:00:00 clear sky 34.930 34.930 35.579 26 1.26 m/h 0 %
05:00:00 clear sky 34.365 34.365 34.365 28 1.61 m/h 0 %
08:00:00 clear sky 38.550 38.550 38.550 22 4.86 m/h 0 %
11:00:00 clear sky 43.074 43.074 43.074 14 3.02 m/h 0 %
14:00:00 clear sky 45.250 45.250 45.250 12 3.32 m/h 0 %
17:00:00 clear sky 38.180 38.180 38.180 22 7.49 m/h 0 %
20:00:00 clear sky 38.194 38.194 38.194 20 7.77 m/h 0 %
23:00:00 clear sky 36.935 36.935 36.935 24 4.95 m/h 0 %
28-Jun-2019 (Fri)
02:00:00 clear sky 34.928 34.928 34.928 26 3.37 m/h 0 %
05:00:00 clear sky 34.028 34.028 34.028 27 2.99 m/h 0 %
08:00:00 clear sky 38.849 38.849 38.849 24 5.94 m/h 0 %
11:00:00 clear sky 43.625 43.625 43.625 18 4.49 m/h 0 %
14:00:00 clear sky 46.431 46.431 46.431 12 4.57 m/h 0 %
17:00:00 light rain 39.350 39.350 39.350 19 9.51 m/h 50 %
20:00:00 light rain 38.150 38.150 38.150 22 2.42 m/h 56 %
23:00:00 light rain 36.572 36.572 36.572 25 2.29 m/h 6 %
29-Jun-2019 (Sat)
02:00:00 clear sky 35.872 35.872 35.872 26 3.72 m/h 0 %
05:00:00 clear sky 34.399 34.399 34.399 30 3.73 m/h 0 %
08:00:00 clear sky 38.647 38.647 38.647 27 5.57 m/h 0 %
11:00:00 clear sky 43.750 43.750 43.750 18 4.48 m/h 0 %
14:00:00 clear sky 46.950 46.950 46.950 11 4.95 m/h 0 %
17:00:00 few clouds 46.391 46.391 46.391 10 4.65 m/h 0 %
20:00:00 broken clouds 42.450 42.450 42.450 14 5.01 m/h 0 %
23:00:00 broken clouds 39.650 39.650 39.650 18 3.78 m/h 0 %
30-Jun-2019 (Sun)
02:00:00 clear sky 36.586 36.586 36.586 22 1.97 m/h 0 %
05:00:00 clear sky 34.572 34.572 34.572 28 1.51 m/h 0 %
08:00:00 clear sky 39.012 39.012 39.012 25 4.32 m/h 0 %
11:00:00 clear sky 44.218 44.218 44.218 18 4.37 m/h 0 %
14:00:00 clear sky 47.208 47.208 47.208 12 4.92 m/h 0 %
17:00:00 scattered clouds 46.550 46.550 46.550 11 4.31 m/h 0 %
20:00:00 light rain 41.550 41.550 41.550 17 1.95 m/h 19 %
23:00:00 light rain 39.450 39.450 39.450 20 2.33 m/h 12 %
01-Jul-2019 (Mon)
02:00:00 clear sky 36.950 36.950 36.950 24 3.13 m/h 0 %
05:00:00 clear sky 35.435 35.435 35.435 25 4.05 m/h 0 %
08:00:00 clear sky 38.550 38.550 38.550 32 3.65 m/h 0 %
11:00:00 clear sky 43.750 43.750 43.750 22 4.36 m/h 0 %
14:00:00 clear sky 47.250 47.250 47.250 14 5.12 m/h 0 %


Lahore's Tourist Spots

Museums in Lahore

Historical Places in Lahore

Famous Cities (60)